FR-0041 weather

Centre Hospitalier J. Bouveri Heliport
Montceau Les Mines, Bourgogne-Franche-Comté, France

Public forecast

Using degrees Celsius for public forecast. Weather courtesy of forecast.io.

Closest aviation weather report (METAR) to Centre Hospitalier J. Bouveri Heliport

Closest report is Saint-Yan Airport, 19.5 nm (36.0 km) SW. Retrieved 2020/08/03 12:30 UTC (0 seconds ago):

LFLN 031230Z AUTO 32012KT CAVOK 23/08 Q1015 TEMPO 32015G25KT SHRA FEW060TCU BKN080

Closest aviation forecast (TAF) to Centre Hospitalier J. Bouveri Heliport

Forecast is more than 12 hours old.

Closest forecast is Dijon-Bourgogne Airport, 48.4 nm (89.6 km) NE. Retrieved 2015/06/01 00:11 UTC (5 years ago):

TAF LFSD 010600Z 0100/0124 CNL